sensor_id;sensor_type;location;lat;lon;timestamp;pressure;altitude;pressure_sealevel;temperature;humidity
39341;BME280;25059;52.132;21.062;2024-03-22T06:34:18;100456.81;;;9.13;100.00
39341;BME280;25059;52.132;21.062;2024-03-22T06:37:05;100447.56;;;9.01;100.00
39341;BME280;25059;52.132;21.062;2024-03-22T06:39:51;100453.47;;;8.80;100.00
39341;BME280;25059;52.132;21.062;2024-03-22T06:42:37;100447.31;;;8.81;100.00
39341;BME280;25059;52.132;21.062;2024-03-22T06:45:21;100442.50;;;8.95;100.00
39341;BME280;25059;52.132;21.062;2024-03-22T06:48:06;100452.09;;;9.24;100.00
39341;BME280;25059;52.132;21.062;2024-03-22T06:50:50;100435.19;;;9.32;100.00
39341;BME280;25059;52.132;21.062;2024-03-22T06:53:35;100442.00;;;9.38;100.00
39341;BME280;25059;52.132;21.062;2024-03-22T06:56:20;100437.88;;;9.31;100.00
39341;BME280;25059;52.132;21.062;2024-03-22T06:59:04;100423.97;;;9.54;100.00
39341;BME280;25059;52.132;21.062;2024-03-22T07:01:52;100447.28;;;9.89;100.00
39341;BME280;25059;52.132;21.062;2024-03-22T07:04:37;100445.41;;;9.93;100.00
39341;BME280;25059;52.132;21.062;2024-03-22T07:07:21;100448.81;;;9.95;100.00
39341;BME280;25059;52.132;21.062;2024-03-22T07:10:09;100448.03;;;9.93;100.00
39341;BME280;25059;52.132;21.062;2024-03-22T07:14:03;100443.75;;;9.64;100.00
39341;BME280;25059;52.132;21.062;2024-03-22T07:17:00;100431.75;;;9.30;100.00
39341;BME280;25059;52.132;21.062;2024-03-22T07:20:10;100452.41;;;9.13;100.00
39341;BME280;25059;52.132;21.062;2024-03-22T07:27:36;100420.66;;;8.94;100.00
39341;BME280;25059;52.132;21.062;2024-03-22T07:30:27;100422.84;;;8.80;100.00
39341;BME280;25059;52.132;21.062;2024-03-22T07:33:16;100456.66;;;8.89;100.00
39341;BME280;25059;52.132;21.062;2024-03-22T07:36:37;100448.88;;;8.86;100.00
39341;BME280;25059;52.132;21.062;2024-03-22T07:39:25;100449.03;;;8.82;100.00
39341;BME280;25059;52.132;21.062;2024-03-22T07:42:13;100445.50;;;8.53;100.00
39341;BME280;25059;52.132;21.062;2024-03-22T07:45:09;100457.41;;;8.34;100.00
39341;BME280;25059;52.132;21.062;2024-03-22T07:48:02;100458.78;;;8.47;100.00
39341;BME280;25059;52.132;21.062;2024-03-22T07:50:57;100352.50;;;8.07;100.00
39341;BME280;25059;52.132;21.062;2024-03-22T07:53:50;100434.72;;;8.64;100.00
39341;BME280;25059;52.132;21.062;2024-03-22T07:56:48;100425.22;;;8.60;100.00
39341;BME280;25059;52.132;21.062;2024-03-22T08:00:47;100456.31;;;8.72;100.00
39341;BME280;25059;52.132;21.062;2024-03-22T08:03:39;100438.47;;;8.55;100.00
39341;BME280;25059;52.132;21.062;2024-03-22T08:06:50;100445.56;;;8.52;100.00
39341;BME280;25059;52.132;21.062;2024-03-22T08:09:41;100444.19;;;8.68;100.00
39341;BME280;25059;52.132;21.062;2024-03-22T08:13:06;100440.66;;;8.69;100.00
39341;BME280;25059;52.132;21.062;2024-03-22T08:16:17;100435.00;;;8.83;100.00
39341;BME280;25059;52.132;21.062;2024-03-22T08:19:24;100420.81;;;8.90;100.00
39341;BME280;25059;52.132;21.062;2024-03-22T08:22:19;100393.59;;;8.94;100.00
39341;BME280;25059;52.132;21.062;2024-03-22T08:25:11;100439.25;;;9.15;100.00
39341;BME280;25059;52.132;21.062;2024-03-22T08:28:19;100438.00;;;9.26;100.00
39341;BME280;25059;52.132;21.062;2024-03-22T08:31:13;100421.50;;;9.23;100.00
39341;BME280;25059;52.132;21.062;2024-03-22T08:34:19;100433.63;;;9.27;100.00
39341;BME280;25059;52.132;21.062;2024-03-22T08:37:13;100379.19;;;9.33;100.00
39341;BME280;25059;52.132;21.062;2024-03-22T08:40:16;100399.31;;;9.84;100.00
39341;BME280;25059;52.132;21.062;2024-03-22T08:43:11;100415.69;;;10.16;100.00
39341;BME280;25059;52.132;21.062;2024-03-22T08:46:04;100419.13;;;10.18;100.00
39341;BME280;25059;52.132;21.062;2024-03-22T08:49:16;100424.06;;;10.27;100.00
39341;BME280;25059;52.132;21.062;2024-03-22T08:52:15;100420.19;;;10.12;100.00
39341;BME280;25059;52.132;21.062;2024-03-22T09:03:16;100422.44;;;10.93;100.00
39341;BME280;25059;52.132;21.062;2024-03-22T09:06:27;100419.38;;;10.58;100.00
39341;BME280;25059;52.132;21.062;2024-03-22T09:13:48;100414.19;;;10.57;100.00
39341;BME280;25059;52.132;21.062;2024-03-22T09:17:02;100416.03;;;10.31;100.00
39341;BME280;25059;52.132;21.062;2024-03-22T09:19:59;100383.13;;;9.96;100.00
39341;BME280;25059;52.132;21.062;2024-03-22T09:22:47;100403.53;;;10.13;100.00
39341;BME280;25059;52.132;21.062;2024-03-22T09:25:46;100411.03;;;9.99;100.00
39341;BME280;25059;52.132;21.062;2024-03-22T09:28:46;100397.75;;;10.03;100.00
39341;BME280;25059;52.132;21.062;2024-03-22T09:31:59;100412.75;;;9.75;100.00
39341;BME280;25059;52.132;21.062;2024-03-22T09:34:48;100391.59;;;9.80;100.00
39341;BME280;25059;52.132;21.062;2024-03-22T09:37:48;100323.28;;;9.31;100.00
39341;BME280;25059;52.132;21.062;2024-03-22T09:40:58;100389.56;;;9.88;100.00
39341;BME280;25059;52.132;21.062;2024-03-22T09:43:57;100402.09;;;9.80;100.00
39341;BME280;25059;52.132;21.062;2024-03-22T09:47:32;100397.97;;;9.97;100.00
39341;BME280;25059;52.132;21.062;2024-03-22T09:50:35;100398.03;;;9.96;100.00
39341;BME280;25059;52.132;21.062;2024-03-22T09:54:10;100310.69;;;8.90;100.00
39341;BME280;25059;52.132;21.062;2024-03-22T10:05:42;100356.13;;;9.68;100.00
39341;BME280;25059;52.132;21.062;2024-03-22T10:09:34;100385.69;;;9.73;100.00
39341;BME280;25059;52.132;21.062;2024-03-22T10:13:08;100363.94;;;9.69;100.00
39341;BME280;25059;52.132;21.062;2024-03-22T10:16:10;100389.00;;;10.03;100.00
39341;BME280;25059;52.132;21.062;2024-03-22T10:18:59;100375.19;;;10.23;100.00
39341;BME280;25059;52.132;21.062;2024-03-22T10:22:10;100377.50;;;10.30;100.00
39341;BME280;25059;52.132;21.062;2024-03-22T10:25:09;100325.13;;;10.02;100.00
39341;BME280;25059;52.132;21.062;2024-03-22T10:28:26;100374.94;;;9.81;100.00
39341;BME280;25059;52.132;21.062;2024-03-22T10:31:23;100276.22;;;9.02;100.00
39341;BME280;25059;52.132;21.062;2024-03-22T10:34:43;100338.78;;;9.64;100.00
39341;BME280;25059;52.132;21.062;2024-03-22T10:41:20;100355.81;;;9.77;100.00
39341;BME280;25059;52.132;21.062;2024-03-22T10:56:57;100297.53;;;10.59;100.00
39341;BME280;25059;52.132;21.062;2024-03-22T10:59:54;100333.94;;;10.70;100.00
39341;BME280;25059;52.132;21.062;2024-03-22T11:02:45;100328.84;;;10.87;100.00
39341;BME280;25059;52.132;21.062;2024-03-22T11:08:59;100329.50;;;10.92;100.00
39341;BME280;25059;52.132;21.062;2024-03-22T11:09:21;100319.56;;;10.57;100.00
39341;BME280;25059;52.132;21.062;2024-03-22T11:12:27;100333.25;;;10.65;100.00
39341;BME280;25059;52.132;21.062;2024-03-22T11:15:33;100280.16;;;10.10;100.00
39341;BME280;25059;52.132;21.062;2024-03-22T11:18:20;100302.16;;;10.08;100.00
39341;BME280;25059;52.132;21.062;2024-03-22T11:21:28;100326.19;;;10.44;100.00
39341;BME280;25059;52.132;21.062;2024-03-22T11:24:26;100298.91;;;10.01;100.00
39341;BME280;25059;52.132;21.062;2024-03-22T11:30:15;100274.00;;;9.64;100.00
39341;BME280;25059;52.132;21.062;2024-03-22T11:33:30;100311.75;;;9.85;100.00
39341;BME280;25059;52.132;21.062;2024-03-22T11:36:20;100307.13;;;9.92;100.00
39341;BME280;25059;52.132;21.062;2024-03-22T11:39:06;100307.81;;;9.97;100.00
39341;BME280;25059;52.132;21.062;2024-03-22T11:41:58;100305.59;;;10.10;100.00
39341;BME280;25059;52.132;21.062;2024-03-22T11:44:52;100263.97;;;9.76;100.00
39341;BME280;25059;52.132;21.062;2024-03-22T11:47:40;100307.66;;;10.01;100.00
39341;BME280;25059;52.132;21.062;2024-03-22T11:50:40;100301.59;;;10.23;100.00
39341;BME280;25059;52.132;21.062;2024-03-22T11:53:51;100303.03;;;10.31;100.00
39341;BME280;25059;52.132;21.062;2024-03-22T11:57:12;100242.88;;;10.24;100.00
39341;BME280;25059;52.132;21.062;2024-03-22T12:00:42;100239.47;;;10.44;100.00
39341;BME280;25059;52.132;21.062;2024-03-22T12:03:31;100281.38;;;10.90;100.00
39341;BME280;25059;52.132;21.062;2024-03-22T12:06:46;100294.47;;;10.92;100.00
39341;BME280;25059;52.132;21.062;2024-03-22T12:09:31;100263.00;;;10.68;100.00
39341;BME280;25059;52.132;21.062;2024-03-22T12:12:21;100271.66;;;10.92;100.00
39341;BME280;25059;52.132;21.062;2024-03-22T12:15:07;100278.31;;;11.01;100.00
39341;BME280;25059;52.132;21.062;2024-03-22T12:18:23;100248.50;;;10.80;100.00
39341;BME280;25059;52.132;21.062;2024-03-22T12:21:19;100276.19;;;10.89;100.00
39341;BME280;25059;52.132;21.062;2024-03-22T12:24:05;100242.47;;;10.56;100.00
39341;BME280;25059;52.132;21.062;2024-03-22T12:26:55;100237.69;;;10.22;100.00
39341;BME280;25059;52.132;21.062;2024-03-22T12:29:45;100284.59;;;10.55;100.00
39341;BME280;25059;52.132;21.062;2024-03-22T12:32:36;100244.66;;;10.23;100.00
39341;BME280;25059;52.132;21.062;2024-03-22T12:35:42;100258.34;;;10.53;100.00
39341;BME280;25059;52.132;21.062;2024-03-22T12:38:38;100249.53;;;10.76;100.00
39341;BME280;25059;52.132;21.062;2024-03-22T12:41:31;100250.88;;;11.07;100.00
39341;BME280;25059;52.132;21.062;2024-03-22T12:44:55;100239.41;;;10.67;100.00
39341;BME280;25059;52.132;21.062;2024-03-22T12:48:04;100227.63;;;10.76;100.00
39341;BME280;25059;52.132;21.062;2024-03-22T12:50:53;100178.53;;;10.76;100.00
39341;BME280;25059;52.132;21.062;2024-03-22T12:53:47;100195.31;;;10.94;100.00
39341;BME280;25059;52.132;21.062;2024-03-22T12:56:46;100194.66;;;10.89;100.00
39341;BME280;25059;52.132;21.062;2024-03-22T12:59:34;100209.75;;;11.24;100.00
39341;BME280;25059;52.132;21.062;2024-03-22T13:02:31;100226.78;;;11.36;100.00
39341;BME280;25059;52.132;21.062;2024-03-22T13:05:25;100177.69;;;10.96;100.00
39341;BME280;25059;52.132;21.062;2024-03-22T13:08:28;100163.88;;;10.71;100.00
39341;BME280;25059;52.132;21.062;2024-03-22T13:11:13;100173.31;;;10.54;100.00
39341;BME280;25059;52.132;21.062;2024-03-22T13:14:07;100190.44;;;10.64;100.00
39341;BME280;25059;52.132;21.062;2024-03-22T13:17:05;100177.53;;;10.58;100.00
39341;BME280;25059;52.132;21.062;2024-03-22T13:19:57;100191.94;;;10.28;100.00
39341;BME280;25059;52.132;21.062;2024-03-22T13:22:44;100207.25;;;10.39;100.00
39341;BME280;25059;52.132;21.062;2024-03-22T13:25:46;100188.69;;;10.43;100.00
39341;BME280;25059;52.132;21.062;2024-03-22T13:28:37;100171.28;;;10.41;100.00
39341;BME280;25059;52.132;21.062;2024-03-22T13:31:27;100159.47;;;10.51;100.00
39341;BME280;25059;52.132;21.062;2024-03-22T13:34:25;100148.22;;;10.67;100.00
39341;BME280;25059;52.132;21.062;2024-03-22T13:37:13;100159.47;;;10.91;100.00
39341;BME280;25059;52.132;21.062;2024-03-22T13:40:05;100152.72;;;11.25;100.00
39341;BME280;25059;52.132;21.062;2024-03-22T13:42:56;100127.81;;;11.13;100.00
39341;BME280;25059;52.132;21.062;2024-03-22T13:45:43;100135.66;;;11.52;100.00
39341;BME280;25059;52.132;21.062;2024-03-22T13:48:31;100151.81;;;11.45;100.00
39341;BME280;25059;52.132;21.062;2024-03-22T13:51:44;100121.25;;;11.03;100.00
39341;BME280;25059;52.132;21.062;2024-03-22T13:54:35;100147.34;;;11.47;100.00
39341;BME280;25059;52.132;21.062;2024-03-22T13:57:25;100146.19;;;11.71;100.00
39341;BME280;25059;52.132;21.062;2024-03-22T14:00:14;100117.25;;;11.52;100.00
39341;BME280;25059;52.132;21.062;2024-03-22T14:03:04;100140.28;;;11.66;100.00
39341;BME280;25059;52.132;21.062;2024-03-22T14:05:55;100114.41;;;11.38;100.00
39341;BME280;25059;52.132;21.062;2024-03-22T14:08:43;100141.78;;;11.34;100.00
39341;BME280;25059;52.132;21.062;2024-03-22T14:11:31;100134.81;;;11.33;100.00
39341;BME280;25059;52.132;21.062;2024-03-22T14:14:25;100132.59;;;11.24;100.00
39341;BME280;25059;52.132;21.062;2024-03-22T14:17:25;100129.53;;;11.14;100.00
39341;BME280;25059;52.132;21.062;2024-03-22T14:20:13;100131.00;;;11.01;100.00
39341;BME280;25059;52.132;21.062;2024-03-22T14:23:01;100113.63;;;10.97;100.00
39341;BME280;25059;52.132;21.062;2024-03-22T14:25:46;100106.88;;;10.91;100.00
39341;BME280;25059;52.132;21.062;2024-03-22T14:28:32;100112.19;;;10.90;100.00
39341;BME280;25059;52.132;21.062;2024-03-22T14:31:20;100120.28;;;10.85;100.00
39341;BME280;25059;52.132;21.062;2024-03-22T14:34:06;100110.63;;;10.86;100.00
39341;BME280;25059;52.132;21.062;2024-03-22T14:36:51;100104.13;;;10.74;100.00
39341;BME280;25059;52.132;21.062;2024-03-22T14:39:38;100102.34;;;10.75;100.00
39341;BME280;25059;52.132;21.062;2024-03-22T14:42:27;100092.63;;;10.56;100.00
39341;BME280;25059;52.132;21.062;2024-03-22T14:45:11;100066.28;;;10.38;100.00
39341;BME280;25059;52.132;21.062;2024-03-22T14:47:56;100076.78;;;10.58;100.00
39341;BME280;25059;52.132;21.062;2024-03-22T14:50:42;100065.16;;;10.43;100.00
39341;BME280;25059;52.132;21.062;2024-03-22T14:53:28;100084.88;;;10.53;100.00
39341;BME280;25059;52.132;21.062;2024-03-22T14:56:13;100058.84;;;10.47;100.00
39341;BME280;25059;52.132;21.062;2024-03-22T14:58:59;100058.13;;;10.44;100.00
39341;BME280;25059;52.132;21.062;2024-03-22T15:01:46;100074.28;;;10.55;100.00
39341;BME280;25059;52.132;21.062;2024-03-22T15:04:32;100067.53;;;10.49;100.00
39341;BME280;25059;52.132;21.062;2024-03-22T15:07:17;100055.38;;;10.47;100.00
39341;BME280;25059;52.132;21.062;2024-03-22T15:10:02;100042.56;;;10.39;100.00
39341;BME280;25059;52.132;21.062;2024-03-22T15:12:46;100052.94;;;10.42;100.00
39341;BME280;25059;52.132;21.062;2024-03-22T15:15:34;100033.50;;;10.26;100.00
39341;BME280;25059;52.132;21.062;2024-03-22T15:18:19;100050.72;;;10.33;100.00
39341;BME280;25059;52.132;21.062;2024-03-22T15:21:05;100035.94;;;10.30;100.00
39341;BME280;25059;52.132;21.062;2024-03-22T15:23:49;100033.16;;;10.33;100.00
39341;BME280;25059;52.132;21.062;2024-03-22T15:26:34;100021.47;;;10.20;100.00
39341;BME280;25059;52.132;21.062;2024-03-22T15:29:20;100046.44;;;9.88;100.00
39341;BME280;25059;52.132;21.062;2024-03-22T15:32:06;100054.63;;;9.59;100.00
39341;BME280;25059;52.132;21.062;2024-03-22T15:34:53;100032.94;;;9.32;100.00
39341;BME280;25059;52.132;21.062;2024-03-22T15:37:45;100039.34;;;9.25;100.00
39341;BME280;25059;52.132;21.062;2024-03-22T15:40:31;100036.22;;;9.15;100.00
39341;BME280;25059;52.132;21.062;2024-03-22T15:43:17;100025.47;;;8.99;100.00
39341;BME280;25059;52.132;21.062;2024-03-22T15:46:02;100040.63;;;9.15;100.00
39341;BME280;25059;52.132;21.062;2024-03-22T15:48:48;100029.31;;;9.13;100.00
39341;BME280;25059;52.132;21.062;2024-03-22T15:51:32;100008.59;;;9.06;100.00
39341;BME280;25059;52.132;21.062;2024-03-22T15:54:16;100007.84;;;9.03;100.00
39341;BME280;25059;52.132;21.062;2024-03-22T15:57:05;100015.41;;;9.11;100.00
39341;BME280;25059;52.132;21.062;2024-03-22T15:59:49;100011.88;;;9.12;100.00
39341;BME280;25059;52.132;21.062;2024-03-22T16:02:34;100013.19;;;9.23;100.00
39341;BME280;25059;52.132;21.062;2024-03-22T16:05:20;100010.25;;;9.31;100.00
39341;BME280;25059;52.132;21.062;2024-03-22T16:08:05;99993.66;;;9.30;100.00
39341;BME280;25059;52.132;21.062;2024-03-22T16:10:50;99988.72;;;9.23;100.00
39341;BME280;25059;52.132;21.062;2024-03-22T16:13:35;99998.00;;;9.31;100.00
39341;BME280;25059;52.132;21.062;2024-03-22T16:16:21;99989.03;;;9.37;100.00
39341;BME280;25059;52.132;21.062;2024-03-22T16:19:05;99977.13;;;9.28;100.00
39341;BME280;25059;52.132;21.062;2024-03-22T16:21:50;99960.66;;;9.25;100.00
39341;BME280;25059;52.132;21.062;2024-03-22T16:24:34;99985.06;;;9.49;100.00
39341;BME280;25059;52.132;21.062;2024-03-22T16:27:21;99966.13;;;9.41;100.00
39341;BME280;25059;52.132;21.062;2024-03-22T16:30:06;99942.22;;;9.26;100.00
39341;BME280;25059;52.132;21.062;2024-03-22T16:32:51;99969.78;;;9.58;100.00
39341;BME280;25059;52.132;21.062;2024-03-22T16:55:24;99952.41;;;9.34;100.00
39341;BME280;25059;52.132;21.062;2024-03-22T16:58:10;99966.09;;;9.42;100.00
39341;BME280;25059;52.132;21.062;2024-03-22T17:00:55;99976.63;;;9.41;100.00
39341;BME280;25059;52.132;21.062;2024-03-22T17:03:58;99972.06;;;9.46;100.00
39341;BME280;25059;52.132;21.062;2024-03-22T17:06:42;99964.50;;;9.38;100.00
39341;BME280;25059;52.132;21.062;2024-03-22T17:09:27;99970.34;;;9.45;100.00
39341;BME280;25059;52.132;21.062;2024-03-22T17:12:12;99969.44;;;9.46;100.00
39341;BME280;25059;52.132;21.062;2024-03-22T17:14:57;99946.75;;;9.45;100.00
39341;BME280;25059;52.132;21.062;2024-03-22T17:17:42;99946.75;;;9.45;100.00
39341;BME280;25059;52.132;21.062;2024-03-22T17:20:27;99937.94;;;9.46;100.00
39341;BME280;25059;52.132;21.062;2024-03-22T17:23:13;99950.94;;;9.49;100.00
39341;BME280;25059;52.132;21.062;2024-03-22T17:25:59;99933.94;;;9.37;100.00
39341;BME280;25059;52.132;21.062;2024-03-22T17:28:44;99921.78;;;9.34;100.00
39341;BME280;25059;52.132;21.062;2024-03-22T17:31:29;99917.22;;;9.39;100.00
39341;BME280;25059;52.132;21.062;2024-03-22T17:34:14;99927.31;;;9.49;100.00
39341;BME280;25059;52.132;21.062;2024-03-22T17:36:58;99924.22;;;9.39;100.00
39341;BME280;25059;52.132;21.062;2024-03-22T17:39:43;99941.31;;;9.49;100.00
39341;BME280;25059;52.132;21.062;2024-03-22T17:42:28;99927.31;;;9.49;100.00
39341;BME280;25059;52.132;21.062;2024-03-22T17:45:12;99927.13;;;9.53;100.00
39341;BME280;25059;52.132;21.062;2024-03-22T17:47:57;99918.47;;;9.51;100.00
39341;BME280;25059;52.132;21.062;2024-03-22T17:50:42;99904.44;;;9.52;100.00
39341;BME280;25059;52.132;21.062;2024-03-22T17:53:27;99910.28;;;9.59;100.00
39341;BME280;25059;52.132;21.062;2024-03-22T17:56:11;99897.56;;;9.50;100.00
39341;BME280;25059;52.132;21.062;2024-03-22T17:58:56;99902.59;;;9.54;100.00
39341;BME280;25059;52.132;21.062;2024-03-22T18:01:41;99906.63;;;9.63;100.00
39341;BME280;25059;52.132;21.062;2024-03-22T18:04:25;99895.38;;;9.59;100.00
39341;BME280;25059;52.132;21.062;2024-03-22T18:07:10;99906.47;;;9.66;100.00
39341;BME280;25059;52.132;21.062;2024-03-22T18:09:55;99881.81;;;9.50;100.00
39341;BME280;25059;52.132;21.062;2024-03-22T18:12:39;99882.53;;;9.53;100.00
39341;BME280;25059;52.132;21.062;2024-03-22T18:15:24;99869.41;;;9.53;100.00
39341;BME280;25059;52.132;21.062;2024-03-22T18:18:10;99886.34;;;9.66;100.00
39341;BME280;25059;52.132;21.062;2024-03-22T18:20:54;99879.84;;;9.55;100.00
39341;BME280;25059;52.132;21.062;2024-03-22T18:23:40;99882.06;;;9.64;100.00
39341;BME280;25059;52.132;21.062;2024-03-22T18:26:25;99896.56;;;9.73;100.00
39341;BME280;25059;52.132;21.062;2024-03-22T18:29:09;99886.59;;;9.60;100.00
39341;BME280;25059;52.132;21.062;2024-03-22T18:31:53;99901.88;;;9.71;100.00
39341;BME280;25059;52.132;21.062;2024-03-22T18:34:38;99901.03;;;9.70;100.00
39341;BME280;25059;52.132;21.062;2024-03-22T18:37:23;99883.78;;;9.65;100.00
39341;BME280;25059;52.132;21.062;2024-03-22T18:40:08;99864.75;;;9.60;100.00
39341;BME280;25059;52.132;21.062;2024-03-22T18:42:52;99886.78;;;9.76;100.00
39341;BME280;25059;52.132;21.062;2024-03-22T18:45:37;99879.78;;;9.77;100.00
39341;BME280;25059;52.132;21.062;2024-03-22T18:48:22;99871.38;;;9.68;100.00
39341;BME280;25059;52.132;21.062;2024-03-22T18:51:06;99873.81;;;9.73;100.00
39341;BME280;25059;52.132;21.062;2024-03-22T18:53:51;99854.13;;;9.63;100.00
39341;BME280;25059;52.132;21.062;2024-03-22T18:56:37;99825.84;;;9.49;100.00
39341;BME280;25059;52.132;21.062;2024-03-22T18:59:22;99856.47;;;9.69;100.00
39341;BME280;25059;52.132;21.062;2024-03-22T19:02:06;99834.91;;;9.62;100.00
39341;BME280;25059;52.132;21.062;2024-03-22T19:04:51;99842.31;;;9.73;100.00
39341;BME280;25059;52.132;21.062;2024-03-22T19:07:35;99844.22;;;9.69;100.00
39341;BME280;25059;52.132;21.062;2024-03-22T19:10:20;99839.22;;;9.63;100.00
39341;BME280;25059;52.132;21.062;2024-03-22T19:13:05;99820.13;;;9.60;100.00
39341;BME280;25059;52.132;21.062;2024-03-22T19:15:54;99819.28;;;9.59;100.00
39341;BME280;25059;52.132;21.062;2024-03-22T19:18:39;99828.88;;;9.60;100.00
39341;BME280;25059;52.132;21.062;2024-03-22T19:21:24;99798.75;;;9.49;100.00
39341;BME280;25059;52.132;21.062;2024-03-22T19:24:08;99811.28;;;9.62;100.00
39341;BME280;25059;52.132;21.062;2024-03-22T19:26:53;99803.19;;;9.67;100.00
39341;BME280;25059;52.132;21.062;2024-03-22T19:29:37;99817.75;;;9.74;100.00
39341;BME280;25059;52.132;21.062;2024-03-22T19:32:22;99794.09;;;9.55;100.00
39341;BME280;25059;52.132;21.062;2024-03-22T19:35:07;99825.84;;;9.69;100.00
39341;BME280;25059;52.132;21.062;2024-03-22T19:37:52;99811.94;;;9.67;100.00
39341;BME280;25059;52.132;21.062;2024-03-22T19:40:37;99795.53;;;9.62;100.00
39341;BME280;25059;52.132;21.062;2024-03-22T19:43:22;99804.38;;;9.80;100.00
39341;BME280;25059;52.132;21.062;2024-03-22T19:46:08;99789.94;;;9.70;100.00
39341;BME280;25059;52.132;21.062;2024-03-22T19:48:53;99772.41;;;9.70;100.00
39341;BME280;25059;52.132;21.062;2024-03-22T19:51:38;99793.88;;;9.80;100.00
39341;BME280;25059;52.132;21.062;2024-03-22T19:54:23;99805.16;;;9.82;100.00
39341;BME280;25059;52.132;21.062;2024-03-22T19:57:07;99787.72;;;9.61;100.00
39341;BME280;25059;52.132;21.062;2024-03-22T19:59:52;99800.25;;;9.75;100.00
39341;BME280;25059;52.132;21.062;2024-03-22T20:02:37;99774.09;;;9.53;100.00
39341;BME280;25059;52.132;21.062;2024-03-22T20:05:21;99807.13;;;9.77;100.00
39341;BME280;25059;52.132;21.062;2024-03-22T20:08:06;99781.50;;;9.63;100.00
39341;BME280;25059;52.132;21.062;2024-03-22T20:10:51;99800.78;;;9.62;100.00
39341;BME280;25059;52.132;21.062;2024-03-22T20:13:36;99794.94;;;9.56;100.00
39341;BME280;25059;52.132;21.062;2024-03-22T20:16:21;99783.88;;;9.49;100.00
39341;BME280;25059;52.132;21.062;2024-03-22T20:19:05;99778.56;;;9.51;100.00
39341;BME280;25059;52.132;21.062;2024-03-22T20:21:50;99762.03;;;9.49;100.00
39341;BME280;25059;52.132;21.062;2024-03-22T20:24:34;99756.66;;;9.52;100.00
39341;BME280;25059;52.132;21.062;2024-03-22T20:27:21;99766.59;;;9.64;100.00
39341;BME280;25059;52.132;21.062;2024-03-22T20:30:06;99779.25;;;9.75;100.00
39341;BME280;25059;52.132;21.062;2024-03-22T20:32:51;99734.09;;;9.48;100.00
39341;BME280;25059;52.132;21.062;2024-03-22T20:35:35;99774.84;;;9.75;100.00
